Time;durP1;ratioP1;P1;durP2;ratioP2;P2;SDS_P1;SDS_P2;PMS_P1;PMS_P2;Temp;Humidity;BMP_temperature;BMP_pressure;BME280_temperature;BME280_humidity;BME280_pressure;Samples;Min_cycle;Max_cycle;Signal;HPM_P1;HPM_P2
2023/02/06 00:00:59;;;;;;;;;;;4.00;91.20;;;;;;4993300;28;19928;-79
2023/02/06 00:03:25;;;;;;;;;;;4.00;91.20;;;;;;5004970;28;19928;-79
2023/02/06 00:05:57;;;;;;;;;;;3.90;91.40;;;;;;5003381;28;19913;-80
2023/02/06 00:08:22;;;;;;;;;;;3.90;91.50;;;;;;4996144;28;19925;-80
2023/02/06 00:10:48;;;;;;;;;;;3.90;91.50;;;;;;4992779;28;20411;-80
2023/02/06 00:13:13;;;;;;;;;;;4.10;91.40;;;;;;4990064;28;19920;-78
2023/02/06 00:15:39;;;;;;;;;;;4.00;91.50;;;;;;4994083;28;19961;-79
2023/02/06 00:18:04;;;;;;;;;;;3.90;91.70;;;;;;5001029;28;19914;-80
2023/02/06 00:20:30;;;;;;;;;;;3.90;91.80;;;;;;4993920;28;19964;-80
2023/02/06 00:22:55;;;;;;;;;;;3.80;91.90;;;;;;5004295;28;19975;-81
2023/02/06 00:25:21;;;;;;;;;;;3.60;92.10;;;;;;5000216;28;19914;-81
2023/02/06 00:27:46;;;;;;;;;;;3.60;92.30;;;;;;4992458;28;19921;-80
2023/02/06 00:30:12;;;;;;;;;;;3.50;92.40;;;;;;4999441;28;19917;-82
2023/02/06 00:32:38;;;;;;;;;;;3.50;92.40;;;;;;5003868;28;19913;-82
2023/02/06 00:35:04;;;;;;;;;;;3.70;92.40;;;;;;4999675;28;20067;-82
2023/02/06 00:37:29;;;;;;;;;;;3.90;92.20;;;;;;4998522;28;19913;-81
2023/02/06 00:39:55;;;;;;;;;;;3.90;92.20;;;;;;5003754;28;19913;-79
2023/02/06 00:42:20;;;;;;;;;;;4.00;92.00;;;;;;5002852;28;19982;-79
2023/02/06 00:44:46;;;;;;;;;;;4.00;92.00;;;;;;4997990;28;19960;-79
2023/02/06 00:47:11;;;;;;;;;;;3.90;92.00;;;;;;4999972;28;20032;-80
2023/02/06 00:49:37;;;;;;;;;;;4.00;92.00;;;;;;4986523;28;19975;-80
2023/02/06 00:52:02;;;;;;;;;;;3.90;92.20;;;;;;4988997;28;19918;-79
2023/02/06 00:54:28;;;;;;;;;;;3.80;92.40;;;;;;5003713;28;19910;-79
2023/02/06 00:56:54;;;;;;;;;;;4.00;92.20;;;;;;4993504;28;19920;-80
2023/02/06 00:59:19;;;;;;;;;;;3.90;92.20;;;;;;4996116;28;19928;-79
2023/02/06 01:01:45;;;;;;;;;;;3.70;92.60;;;;;;4994422;28;19927;-79
2023/02/06 01:04:10;;;;;;;;;;;3.50;93.00;;;;;;5003190;28;19918;-79
2023/02/06 01:06:36;;;;;;;;;;;3.50;93.10;;;;;;4993437;28;20008;-78
2023/02/06 01:09:01;;;;;;;;;;;3.40;93.40;;;;;;4973193;28;19932;-80
2023/02/06 01:11:27;;;;;;;;;;;3.40;93.50;;;;;;4997985;28;19944;-80
2023/02/06 01:13:52;;;;;;;;;;;3.40;93.40;;;;;;4994175;28;19917;-79
2023/02/06 01:16:20;;;;;;;;;;;3.30;93.70;;;;;;5002129;28;19910;-81
2023/02/06 01:18:46;;;;;;;;;;;3.40;93.80;;;;;;5003910;28;20385;-80
2023/02/06 01:21:13;;;;;;;;;;;3.40;93.70;;;;;;4995024;28;20045;-80
2023/02/06 01:23:39;;;;;;;;;;;3.50;93.40;;;;;;5004525;28;20028;-81
2023/02/06 01:26:08;;;;;;;;;;;3.50;93.50;;;;;;4997704;28;19998;-80
2023/02/06 01:28:41;;;;;;;;;;;3.40;93.80;;;;;;4989354;28;19920;-81
2023/02/06 01:31:17;;;;;;;;;;;3.40;93.70;;;;;;4994551;28;19910;-80
2023/02/06 01:33:43;;;;;;;;;;;3.40;93.70;;;;;;4992256;28;20263;-80
2023/02/06 01:36:09;;;;;;;;;;;3.40;93.80;;;;;;4997442;28;20094;-80
2023/02/06 01:38:35;;;;;;;;;;;3.40;93.80;;;;;;4997153;28;19914;-79
2023/02/06 01:41:01;;;;;;;;;;;3.40;93.70;;;;;;5003889;28;19920;-79
2023/02/06 01:43:28;;;;;;;;;;;3.30;93.90;;;;;;4996620;28;19921;-79
2023/02/06 01:45:54;;;;;;;;;;;3.20;94.10;;;;;;5003637;28;20389;-80
2023/02/06 01:48:23;;;;;;;;;;;3.20;94.30;;;;;;4983889;28;20004;-80
2023/02/06 01:50:50;;;;;;;;;;;3.30;94.30;;;;;;4998450;28;19909;-80
2023/02/06 01:53:17;;;;;;;;;;;3.30;94.40;;;;;;4996237;28;19909;-81
2023/02/06 01:55:43;;;;;;;;;;;3.30;94.30;;;;;;4988508;28;19968;-80
2023/02/06 01:58:10;;;;;;;;;;;3.20;94.50;;;;;;4995955;28;19924;-80
2023/02/06 02:00:36;;;;;;;;;;;3.20;94.50;;;;;;4999750;28;20016;-81
2023/02/06 02:03:02;;;;;;;;;;;3.30;94.50;;;;;;4993266;28;19913;-81
2023/02/06 02:05:29;;;;;;;;;;;3.10;94.70;;;;;;5001339;28;19909;-82
2023/02/06 02:08:14;;;;;;;;;;;3.10;94.90;;;;;;5002206;28;19928;-82
2023/02/06 02:10:40;;;;;;;;;;;3.10;95.10;;;;;;5001648;28;20384;-82
2023/02/06 02:13:05;;;;;;;;;;;3.10;95.10;;;;;;4990536;28;19916;-81
2023/02/06 02:15:38;;;;;;;;;;;3.20;95.20;;;;;;4991250;28;19914;-81
2023/02/06 02:18:09;;;;;;;;;;;3.10;95.20;;;;;;5002065;28;19919;-82
2023/02/06 02:20:35;;;;;;;;;;;3.10;95.40;;;;;;5001075;28;19914;-81
2023/02/06 02:23:06;;;;;;;;;;;3.10;95.40;;;;;;4987388;28;19979;-83
2023/02/06 02:25:32;;;;;;;;;;;3.10;95.30;;;;;;5000956;28;19917;-83
2023/02/06 02:28:22;;;;;;;;;;;3.10;95.50;;;;;;4988712;28;20704;-82
2023/02/06 02:30:48;;;;;;;;;;;3.10;95.30;;;;;;4987575;28;19916;-82
2023/02/06 02:33:26;;;;;;;;;;;3.00;95.40;;;;;;5002593;28;19909;-83
2023/02/06 02:35:55;;;;;;;;;;;3.00;95.80;;;;;;4994151;28;19909;-80
2023/02/06 02:38:20;;;;;;;;;;;3.10;95.70;;;;;;5001596;28;19913;-81
2023/02/06 02:40:49;;;;;;;;;;;3.00;95.70;;;;;;5001253;28;20636;-81
2023/02/06 02:43:18;;;;;;;;;;;2.90;95.80;;;;;;4992864;28;19910;-81
2023/02/06 02:46:00;;;;;;;;;;;3.00;95.80;;;;;;4993278;28;19914;-81
2023/02/06 02:48:28;;;;;;;;;;;3.00;95.90;;;;;;4992669;28;19917;-80
2023/02/06 02:50:55;;;;;;;;;;;2.90;95.80;;;;;;4994307;28;19917;-80
2023/02/06 02:53:20;;;;;;;;;;;3.10;95.60;;;;;;5002820;28;19919;-79
2023/02/06 02:55:46;;;;;;;;;;;3.10;95.90;;;;;;4996409;28;19913;-79
2023/02/06 02:58:15;;;;;;;;;;;3.10;95.80;;;;;;4997663;28;19914;-79
2023/02/06 03:00:43;;;;;;;;;;;3.00;95.90;;;;;;5004447;28;19921;-82
2023/02/06 03:03:10;;;;;;;;;;;2.90;96.00;;;;;;4979288;28;20301;-82
2023/02/06 03:05:39;;;;;;;;;;;3.00;96.00;;;;;;4995953;28;19909;-80
2023/02/06 03:08:19;;;;;;;;;;;3.10;96.00;;;;;;5003450;28;20360;-80
2023/02/06 03:11:00;;;;;;;;;;;3.30;95.70;;;;;;4997507;28;19932;-81
2023/02/06 03:13:33;;;;;;;;;;;3.20;95.70;;;;;;5003602;28;19917;-80
2023/02/06 03:16:01;;;;;;;;;;;3.10;95.90;;;;;;4993102;28;19924;-81
2023/02/06 03:18:41;;;;;;;;;;;3.20;95.90;;;;;;5003087;28;19948;-80
2023/02/06 03:21:09;;;;;;;;;;;3.00;96.10;;;;;;5004023;28;19913;-81
2023/02/06 03:23:40;;;;;;;;;;;3.00;96.20;;;;;;4987158;28;19913;-81
2023/02/06 03:26:08;;;;;;;;;;;2.90;96.30;;;;;;4998896;28;19919;-82
2023/02/06 03:28:36;;;;;;;;;;;3.00;96.40;;;;;;4983234;28;19913;-81
2023/02/06 03:31:04;;;;;;;;;;;2.90;96.40;;;;;;5000191;28;19914;-82
2023/02/06 03:33:32;;;;;;;;;;;3.10;96.50;;;;;;4987810;28;19910;-82
2023/02/06 03:35:58;;;;;;;;;;;3.30;96.20;;;;;;5003133;28;19964;-83
2023/02/06 03:38:24;;;;;;;;;;;3.30;96.20;;;;;;5002805;28;19952;-82
2023/02/06 03:40:51;;;;;;;;;;;3.20;96.60;;;;;;4999920;28;19959;-82
2023/02/06 03:43:18;;;;;;;;;;;3.20;96.40;;;;;;4976683;28;19957;-82
2023/02/06 03:45:46;;;;;;;;;;;3.10;96.90;;;;;;4999262;28;19955;-82
2023/02/06 03:48:16;;;;;;;;;;;3.20;96.70;;;;;;4992247;28;19917;-81
2023/02/06 03:50:43;;;;;;;;;;;3.10;97.00;;;;;;4987210;28;19916;-81
2023/02/06 03:53:10;;;;;;;;;;;3.10;96.90;;;;;;4996705;28;19910;-80
2023/02/06 03:55:36;;;;;;;;;;;3.20;96.70;;;;;;4995399;28;19916;-83
2023/02/06 03:58:06;;;;;;;;;;;3.20;96.90;;;;;;4995166;28;19914;-83
2023/02/06 04:00:32;;;;;;;;;;;3.10;97.10;;;;;;5002369;28;19976;-84
2023/02/06 04:02:58;;;;;;;;;;;3.20;97.00;;;;;;5003724;28;19932;-84
2023/02/06 04:05:24;;;;;;;;;;;3.20;96.90;;;;;;4987414;28;20783;-83
2023/02/06 04:07:51;;;;;;;;;;;3.20;97.20;;;;;;5002575;28;19972;-84
2023/02/06 04:10:17;;;;;;;;;;;3.10;97.30;;;;;;5003856;28;19921;-84
2023/02/06 04:12:42;;;;;;;;;;;3.00;97.20;;;;;;5005616;28;19913;-83
2023/02/06 04:15:08;;;;;;;;;;;3.00;97.50;;;;;;4996200;28;20040;-84
2023/02/06 04:17:34;;;;;;;;;;;2.90;97.50;;;;;;5004613;28;20371;-84
2023/02/06 04:19:59;;;;;;;;;;;3.00;97.40;;;;;;5004132;28;19913;-84
2023/02/06 04:22:25;;;;;;;;;;;2.80;97.90;;;;;;4999416;28;19925;-83
2023/02/06 04:24:50;;;;;;;;;;;2.80;97.90;;;;;;4997275;28;19920;-83
2023/02/06 04:27:16;;;;;;;;;;;2.90;97.80;;;;;;4996633;28;19922;-84
2023/02/06 04:29:42;;;;;;;;;;;2.80;97.90;;;;;;4999571;28;20582;-84
2023/02/06 04:32:07;;;;;;;;;;;2.90;97.90;;;;;;4998545;28;19921;-84
2023/02/06 04:34:34;;;;;;;;;;;2.90;97.90;;;;;;4993881;28;19948;-81
2023/02/06 04:37:00;;;;;;;;;;;2.80;98.10;;;;;;4986794;28;19917;-82
2023/02/06 04:39:26;;;;;;;;;;;2.60;98.50;;;;;;4991385;28;20007;-81
2023/02/06 04:41:51;;;;;;;;;;;2.70;98.50;;;;;;4995719;28;19917;-82
2023/02/06 04:44:17;;;;;;;;;;;2.90;98.30;;;;;;4992091;28;19971;-83
2023/02/06 04:46:43;;;;;;;;;;;2.80;98.40;;;;;;4992390;28;19968;-83
2023/02/06 04:49:09;;;;;;;;;;;2.90;98.20;;;;;;5003637;28;19913;-83
2023/02/06 04:51:35;;;;;;;;;;;2.60;98.70;;;;;;4989311;28;20473;-83
2023/02/06 04:54:01;;;;;;;;;;;2.80;98.50;;;;;;5001709;28;19964;-82
2023/02/06 04:56:26;;;;;;;;;;;2.80;98.50;;;;;;5003470;28;19943;-81
2023/02/06 04:58:52;;;;;;;;;;;2.90;98.40;;;;;;4990245;28;19917;-80
2023/02/06 05:01:18;;;;;;;;;;;2.70;98.70;;;;;;5001125;28;19961;-80
2023/02/06 05:03:44;;;;;;;;;;;2.80;98.60;;;;;;5002660;28;20248;-80
2023/02/06 05:06:10;;;;;;;;;;;2.80;98.70;;;;;;4999972;28;20371;-81
2023/02/06 05:08:36;;;;;;;;;;;2.60;98.80;;;;;;4999621;28;19946;-81
2023/02/06 05:11:02;;;;;;;;;;;2.60;99.10;;;;;;4994318;28;19909;-82
2023/02/06 05:13:27;;;;;;;;;;;2.60;99.00;;;;;;5000866;28;19905;-81
2023/02/06 05:15:53;;;;;;;;;;;2.60;99.20;;;;;;4998841;28;19925;-81
2023/02/06 05:18:19;;;;;;;;;;;2.60;99.30;;;;;;5001667;28;20524;-81
2023/02/06 05:20:44;;;;;;;;;;;2.50;99.50;;;;;;4982240;28;19979;-81
2023/02/06 05:23:10;;;;;;;;;;;2.60;99.50;;;;;;5002505;28;19920;-80
2023/02/06 05:25:36;;;;;;;;;;;2.60;99.40;;;;;;4977436;28;20973;-81
2023/02/06 05:28:05;;;;;;;;;;;2.70;99.50;;;;;;4992366;28;19944;-80
2023/02/06 05:30:31;;;;;;;;;;;2.70;99.50;;;;;;4989404;28;19941;-80
2023/02/06 05:32:56;;;;;;;;;;;2.60;99.40;;;;;;4994162;28;19910;-83
2023/02/06 05:35:22;;;;;;;;;;;2.60;99.70;;;;;;4988747;28;19913;-83
2023/02/06 05:37:48;;;;;;;;;;;2.70;99.50;;;;;;4996407;28;19917;-83
2023/02/06 05:40:14;;;;;;;;;;;2.60;99.60;;;;;;4996498;28;19909;-81
2023/02/06 05:42:39;;;;;;;;;;;2.60;99.70;;;;;;4997706;28;19910;-82
2023/02/06 05:45:06;;;;;;;;;;;2.50;99.80;;;;;;4990207;28;20029;-82
2023/02/06 05:47:31;;;;;;;;;;;2.40;99.90;;;;;;4983939;28;20363;-81
2023/02/06 05:49:57;;;;;;;;;;;2.40;99.90;;;;;;4992217;28;19909;-82
2023/02/06 05:52:22;;;;;;;;;;;2.30;99.90;;;;;;4984952;28;19914;-83
2023/02/06 05:54:48;;;;;;;;;;;2.30;99.90;;;;;;4984838;28;20145;-83
2023/02/06 05:57:13;;;;;;;;;;;2.20;99.90;;;;;;4997385;28;19917;-82
2023/02/06 05:59:39;;;;;;;;;;;2.10;99.90;;;;;;4985493;28;19956;-82
2023/02/06 06:02:04;;;;;;;;;;;2.00;99.90;;;;;;4985811;28;19928;-83
2023/02/06 06:04:30;;;;;;;;;;;1.90;99.90;;;;;;4977880;28;19919;-82
2023/02/06 06:06:56;;;;;;;;;;;1.90;99.90;;;;;;5002811;28;19928;-81
2023/02/06 06:09:22;;;;;;;;;;;1.80;99.90;;;;;;4984674;28;20292;-81
2023/02/06 06:11:47;;;;;;;;;;;1.80;99.90;;;;;;4997625;28;19953;-82
2023/02/06 06:14:13;;;;;;;;;;;1.70;99.90;;;;;;4977160;28;19917;-81
2023/02/06 06:16:39;;;;;;;;;;;1.60;99.90;;;;;;4997926;28;19919;-81
2023/02/06 06:19:05;;;;;;;;;;;1.50;99.90;;;;;;4994452;28;19909;-81
2023/02/06 06:21:31;;;;;;;;;;;1.50;99.90;;;;;;4999341;28;19925;-80
2023/02/06 06:23:56;;;;;;;;;;;1.50;99.90;;;;;;4988604;28;19921;-80
2023/02/06 06:26:22;;;;;;;;;;;1.60;99.90;;;;;;5001768;28;20399;-81
2023/02/06 06:28:47;;;;;;;;;;;1.80;99.90;;;;;;4991784;28;19920;-81
2023/02/06 06:31:13;;;;;;;;;;;2.00;99.90;;;;;;4988748;28;19914;-82
2023/02/06 06:33:39;;;;;;;;;;;2.00;99.90;;;;;;4985116;28;19909;-82
2023/02/06 06:36:05;;;;;;;;;;;2.00;99.90;;;;;;4992996;28;19920;-81
2023/02/06 06:38:31;;;;;;;;;;;2.00;99.90;;;;;;4995696;28;19987;-83
2023/02/06 06:40:57;;;;;;;;;;;2.10;99.90;;;;;;4991167;28;19917;-83
2023/02/06 06:43:22;;;;;;;;;;;1.90;99.90;;;;;;4999458;28;19971;-83
2023/02/06 06:45:48;;;;;;;;;;;1.90;99.90;;;;;;4995930;28;20015;-83
2023/02/06 06:48:13;;;;;;;;;;;1.80;99.90;;;;;;4999717;28;20344;-82
2023/02/06 06:50:39;;;;;;;;;;;1.70;99.90;;;;;;4992214;28;19921;-82
2023/02/06 06:53:04;;;;;;;;;;;1.60;99.90;;;;;;4999689;28;20549;-82
2023/02/06 06:55:30;;;;;;;;;;;1.60;99.90;;;;;;4995266;28;19917;-81
2023/02/06 06:57:56;;;;;;;;;;;1.60;99.90;;;;;;4993897;28;19955;-81
2023/02/06 07:00:22;;;;;;;;;;;1.70;99.90;;;;;;4995345;28;19921;-81
2023/02/06 07:02:47;;;;;;;;;;;1.70;99.90;;;;;;4975321;28;20389;-82
2023/02/06 07:05:13;;;;;;;;;;;1.70;99.90;;;;;;4998709;28;19921;-80
2023/02/06 07:07:39;;;;;;;;;;;1.70;99.90;;;;;;4991462;28;19926;-81
2023/02/06 07:10:08;;;;;;;;;;;1.70;99.90;;;;;;4997628;28;19928;-80
2023/02/06 07:12:33;;;;;;;;;;;1.60;99.90;;;;;;4993150;28;19944;-80
2023/02/06 07:14:59;;;;;;;;;;;1.60;99.90;;;;;;4984839;28;19914;-80
2023/02/06 07:17:24;;;;;;;;;;;1.60;99.90;;;;;;4992068;28;19914;-80
2023/02/06 07:19:51;;;;;;;;;;;1.60;99.90;;;;;;4995220;28;19976;-80
2023/02/06 07:22:17;;;;;;;;;;;1.60;99.90;;;;;;4994912;28;20417;-80
2023/02/06 07:24:43;;;;;;;;;;;1.60;99.90;;;;;;4990047;28;19913;-80
2023/02/06 07:27:08;;;;;;;;;;;1.70;99.90;;;;;;4993612;28;19928;-81
2023/02/06 07:29:34;;;;;;;;;;;1.80;99.90;;;;;;4991378;28;19940;-81
2023/02/06 07:31:59;;;;;;;;;;;2.40;99.90;;;;;;4995227;28;20088;-81
2023/02/06 07:34:25;;;;;;;;;;;3.30;99.90;;;;;;5000795;28;19910;-81
2023/02/06 07:36:50;;;;;;;;;;;4.10;98.40;;;;;;5001115;28;19987;-80
2023/02/06 07:39:16;;;;;;;;;;;4.30;97.20;;;;;;4990323;28;20389;-85
2023/02/06 07:41:42;;;;;;;;;;;4.60;96.60;;;;;;4976385;28;19932;-81
2023/02/06 07:44:09;;;;;;;;;;;5.00;96.30;;;;;;4994735;28;19909;-80
2023/02/06 07:46:35;;;;;;;;;;;5.40;95.30;;;;;;5001829;28;19917;-80
2023/02/06 07:49:01;;;;;;;;;;;5.40;94.70;;;;;;5004001;28;19920;-81
2023/02/06 07:51:27;;;;;;;;;;;5.60;94.40;;;;;;5005025;28;20403;-81
2023/02/06 07:53:53;;;;;;;;;;;5.70;94.00;;;;;;5002016;28;19917;-81
2023/02/06 07:56:19;;;;;;;;;;;5.90;93.60;;;;;;5001598;28;19913;-81
2023/02/06 07:58:48;;;;;;;;;;;6.00;93.10;;;;;;5003004;28;19972;-82
2023/02/06 08:01:13;;;;;;;;;;;5.70;93.60;;;;;;4999426;28;19980;-81
2023/02/06 08:03:39;;;;;;;;;;;6.00;93.10;;;;;;5003955;28;19913;-81
2023/02/06 08:06:08;;;;;;;;;;;6.20;93.00;;;;;;5003544;28;20016;-80
2023/02/06 08:08:34;;;;;;;;;;;6.10;92.50;;;;;;4999866;28;19920;-81
2023/02/06 08:11:02;;;;;;;;;;;5.80;93.40;;;;;;4985006;28;19910;-80
2023/02/06 08:13:28;;;;;;;;;;;6.30;93.10;;;;;;5002284;28;19909;-80
2023/02/06 08:15:54;;;;;;;;;;;6.70;92.30;;;;;;5001703;28;20463;-80
2023/02/06 08:18:19;;;;;;;;;;;6.50;92.60;;;;;;5003623;28;19916;-80
2023/02/06 08:20:45;;;;;;;;;;;6.50;92.10;;;;;;5003093;28;19940;-81
2023/02/06 08:23:10;;;;;;;;;;;6.90;91.60;;;;;;5001356;28;20018;-80
2023/02/06 08:25:36;;;;;;;;;;;7.20;91.50;;;;;;5001887;28;19913;-81
2023/02/06 08:28:01;;;;;;;;;;;7.60;91.20;;;;;;5003274;28;20017;-81
2023/02/06 08:30:27;;;;;;;;;;;7.90;91.20;;;;;;5002956;28;20071;-81
2023/02/06 08:32:52;;;;;;;;;;;8.00;90.70;;;;;;5003506;28;19914;-80
2023/02/06 08:35:18;;;;;;;;;;;7.80;90.40;;;;;;4985002;28;20412;-80
2023/02/06 08:37:44;;;;;;;;;;;7.40;90.20;;;;;;5003753;28;19909;-81
2023/02/06 08:40:10;;;;;;;;;;;7.40;90.50;;;;;;5002090;28;19910;-81
2023/02/06 08:42:35;;;;;;;;;;;7.60;90.30;;;;;;5002841;28;20369;-81
2023/02/06 08:45:01;;;;;;;;;;;7.80;89.70;;;;;;4995656;28;19921;-81
2023/02/06 08:47:27;;;;;;;;;;;8.10;89.30;;;;;;5002797;28;19956;-81
2023/02/06 08:49:53;;;;;;;;;;;8.40;88.20;;;;;;5002043;28;20125;-80
2023/02/06 08:52:19;;;;;;;;;;;8.20;89.30;;;;;;5002087;28;19915;-81
2023/02/06 08:54:44;;;;;;;;;;;8.40;90.20;;;;;;5000739;28;20402;-80
2023/02/06 08:57:11;;;;;;;;;;;8.40;89.00;;;;;;5001763;28;19945;-80
2023/02/06 08:59:37;;;;;;;;;;;8.40;89.20;;;;;;5000251;28;19915;-81
2023/02/06 09:02:03;;;;;;;;;;;8.50;88.20;;;;;;4999676;28;19936;-80
2023/02/06 09:04:30;;;;;;;;;;;8.60;88.80;;;;;;5001108;28;20749;-81
2023/02/06 09:06:56;;;;;;;;;;;8.50;89.70;;;;;;5001959;28;19964;-80
2023/02/06 09:09:21;;;;;;;;;;;8.60;88.00;;;;;;5000113;28;20083;-81
2023/02/06 09:11:47;;;;;;;;;;;7.90;85.70;;;;;;5002134;28;19920;-80
2023/02/06 09:14:14;;;;;;;;;;;7.80;88.80;;;;;;4990588;28;19913;-80
2023/02/06 09:16:40;;;;;;;;;;;7.70;89.50;;;;;;4990540;28;19913;-80
2023/02/06 09:19:05;;;;;;;;;;;7.70;89.30;;;;;;4997578;28;19925;-80
2023/02/06 09:21:32;;;;;;;;;;;7.60;89.70;;;;;;5000344;28;19920;-80
2023/02/06 09:23:59;;;;;;;;;;;7.80;90.10;;;;;;5002337;28;19921;-81
2023/02/06 09:26:28;;;;;;;;;;;8.00;90.80;;;;;;4999949;28;20019;-80
2023/02/06 09:28:56;;;;;;;;;;;7.80;87.80;;;;;;5002988;28;19925;-81
2023/02/06 09:31:21;;;;;;;;;;;8.10;90.60;;;;;;4985194;28;19952;-80
2023/02/06 09:33:47;;;;;;;;;;;8.10;89.10;;;;;;4992593;28;20007;-80
2023/02/06 09:36:13;;;;;;;;;;;8.60;87.30;;;;;;4986275;28;20470;-80
2023/02/06 09:38:41;;;;;;;;;;;9.20;87.50;;;;;;4994872;28;19909;-81
2023/02/06 09:41:25;;;;;;;;;;;9.30;86.50;;;;;;4998573;28;20289;-80
2023/02/06 09:43:57;;;;;;;;;;;9.50;85.80;;;;;;5001406;28;19913;-80
2023/02/06 09:46:26;;;;;;;;;;;9.60;86.00;;;;;;4999661;28;19916;-80
2023/02/06 09:48:52;;;;;;;;;;;8.50;86.30;;;;;;4996288;28;20037;-81
2023/02/06 09:51:22;;;;;;;;;;;8.50;85.40;;;;;;4993917;28;20393;-80
2023/02/06 09:53:53;;;;;;;;;;;8.30;86.30;;;;;;4991044;28;19960;-80
2023/02/06 09:56:19;;;;;;;;;;;8.40;86.50;;;;;;4996290;28;19924;-80
2023/02/06 09:59:08;;;;;;;;;;;8.50;89.20;;;;;;5000910;28;19909;-80
2023/02/06 10:01:44;;;;;;;;;;;8.60;88.00;;;;;;4998713;28;19921;-80
2023/02/06 10:04:28;;;;;;;;;;;8.50;86.60;;;;;;5001212;28;20051;-81
2023/02/06 10:06:54;;;;;;;;;;;8.80;88.60;;;;;;4995196;28;19956;-80
2023/02/06 10:09:22;;;;;;;;;;;8.60;87.90;;;;;;4995148;28;20813;-80
2023/02/06 10:11:58;;;;;;;;;;;8.60;85.90;;;;;;4999485;28;19932;-80
2023/02/06 10:14:27;;;;;;;;;;;8.30;85.20;;;;;;4999546;28;19920;-81
2023/02/06 10:17:01;;;;;;;;;;;8.20;84.50;;;;;;4999693;28;20566;-80
2023/02/06 10:19:42;;;;;;;;;;;8.10;85.60;;;;;;4998282;28;19929;-80
2023/02/06 10:22:12;;;;;;;;;;;8.10;87.00;;;;;;5001710;28;19925;-80
2023/02/06 10:24:41;;;;;;;;;;;8.10;88.80;;;;;;5000890;28;19909;-80
2023/02/06 10:27:11;;;;;;;;;;;8.10;88.30;;;;;;5001636;28;20008;-80
2023/02/06 10:29:39;;;;;;;;;;;8.40;86.90;;;;;;5000109;28;19909;-80
2023/02/06 10:32:04;;;;;;;;;;;8.10;86.20;;;;;;5000559;28;19924;-81
2023/02/06 10:34:38;;;;;;;;;;;8.80;86.80;;;;;;5001055;28;19909;-80
2023/02/06 10:37:16;;;;;;;;;;;9.30;84.80;;;;;;4997720;28;20063;-79
2023/02/06 10:39:44;;;;;;;;;;;9.10;82.90;;;;;;4996440;28;19913;-80
2023/02/06 10:42:28;;;;;;;;;;;9.00;83.80;;;;;;4984144;28;19917;-80
2023/02/06 10:44:54;;;;;;;;;;;9.10;84.00;;;;;;4995679;28;19913;-81
2023/02/06 10:47:27;;;;;;;;;;;9.10;90.10;;;;;;4999442;28;19921;-80
2023/02/06 10:49:59;;;;;;;;;;;8.90;87.00;;;;;;4999062;28;20288;-81
2023/02/06 10:52:26;;;;;;;;;;;8.90;87.80;;;;;;4995824;28;19915;-81
2023/02/06 10:54:54;;;;;;;;;;;9.30;88.70;;;;;;4984572;28;20285;-80
2023/02/06 10:57:20;;;;;;;;;;;9.50;88.00;;;;;;4986673;28;19910;-81
2023/02/06 10:59:50;;;;;;;;;;;9.20;88.00;;;;;;4987237;28;19944;-80
2023/02/06 11:02:34;;;;;;;;;;;9.20;86.70;;;;;;4984346;28;20000;-80
2023/02/06 11:05:03;;;;;;;;;;;9.20;87.70;;;;;;4983876;28;20027;-81
2023/02/06 11:07:32;;;;;;;;;;;9.30;84.30;;;;;;4989881;28;19968;-80
2023/02/06 11:09:57;;;;;;;;;;;9.40;81.50;;;;;;4998760;28;19967;-81
2023/02/06 11:12:29;;;;;;;;;;;9.00;80.60;;;;;;4984834;28;20590;-80
2023/02/06 11:14:56;;;;;;;;;;;9.10;80.80;;;;;;4989765;28;19916;-80
2023/02/06 11:17:26;;;;;;;;;;;9.20;81.60;;;;;;4995655;28;19916;-80
2023/02/06 11:19:54;;;;;;;;;;;9.40;80.90;;;;;;4966368;28;20388;-81
2023/02/06 11:22:29;;;;;;;;;;;9.30;80.10;;;;;;5001094;28;19921;-80
2023/02/06 11:25:00;;;;;;;;;;;9.10;80.20;;;;;;4996222;28;19910;-81
2023/02/06 11:27:26;;;;;;;;;;;9.10;80.60;;;;;;4987260;28;19921;-80
2023/02/06 11:29:52;;;;;;;;;;;9.10;80.30;;;;;;4999289;28;19948;-80
2023/02/06 11:32:29;;;;;;;;;;;9.10;80.80;;;;;;4996204;28;19937;-81
2023/02/06 11:35:06;;;;;;;;;;;9.30;82.80;;;;;;5000344;28;19909;-80
2023/02/06 11:37:32;;;;;;;;;;;9.50;80.60;;;;;;5001106;28;20514;-80
2023/02/06 11:40:27;;;;;;;;;;;9.40;82.20;;;;;;4993115;28;19909;-80
2023/02/06 11:43:10;;;;;;;;;;;9.30;83.20;;;;;;4996454;28;19955;-80
2023/02/06 11:45:36;;;;;;;;;;;9.30;84.10;;;;;;4987035;28;19910;-81
2023/02/06 11:48:02;;;;;;;;;;;9.20;81.90;;;;;;4992658;28;19928;-81
2023/02/06 11:50:28;;;;;;;;;;;9.40;80.80;;;;;;4992107;28;19909;-80
2023/02/06 11:52:58;;;;;;;;;;;9.40;81.30;;;;;;4993538;28;20000;-80
2023/02/06 11:55:28;;;;;;;;;;;9.30;81.00;;;;;;4996325;28;19909;-81
2023/02/06 11:58:04;;;;;;;;;;;9.30;80.60;;;;;;5002585;28;19917;-81
2023/02/06 12:00:30;;;;;;;;;;;9.20;82.20;;;;;;5001961;28;20300;-81
2023/02/06 12:02:56;;;;;;;;;;;9.20;80.60;;;;;;4999624;28;19914;-80
2023/02/06 12:05:26;;;;;;;;;;;8.90;78.70;;;;;;5003130;28;19993;-81
2023/02/06 12:07:53;;;;;;;;;;;8.70;77.00;;;;;;4996137;28;19939;-81
2023/02/06 12:10:20;;;;;;;;;;;8.60;76.90;;;;;;5002977;28;20576;-81
2023/02/06 12:12:48;;;;;;;;;;;8.80;77.00;;;;;;5000589;28;19945;-81
2023/02/06 12:15:14;;;;;;;;;;;8.90;81.00;;;;;;5000324;28;19914;-81
2023/02/06 12:17:41;;;;;;;;;;;8.90;76.50;;;;;;5001023;28;19910;-80
2023/02/06 12:20:11;;;;;;;;;;;8.80;77.40;;;;;;5003812;28;19913;-81
2023/02/06 12:22:39;;;;;;;;;;;8.80;77.60;;;;;;4971464;28;19921;-80
2023/02/06 12:25:08;;;;;;;;;;;8.80;78.40;;;;;;4998358;28;19910;-81
2023/02/06 12:27:36;;;;;;;;;;;8.90;76.40;;;;;;4995926;28;19940;-81
2023/02/06 12:30:06;;;;;;;;;;;8.80;74.80;;;;;;5002954;28;20050;-81
2023/02/06 12:32:44;;;;;;;;;;;9.00;77.50;;;;;;5001603;28;19935;-81
2023/02/06 12:35:19;;;;;;;;;;;8.90;75.40;;;;;;5002864;28;19917;-81
2023/02/06 12:37:51;;;;;;;;;;;9.00;75.10;;;;;;4994256;28;19910;-81
2023/02/06 12:40:37;;;;;;;;;;;8.90;76.10;;;;;;4998978;28;20266;-81
2023/02/06 12:43:06;;;;;;;;;;;8.90;76.70;;;;;;4999950;28;19915;-81
2023/02/06 12:45:41;;;;;;;;;;;8.80;73.60;;;;;;5001054;28;19909;-81
2023/02/06 12:48:15;;;;;;;;;;;8.80;75.40;;;;;;4999798;28;19917;-81
2023/02/06 12:50:47;;;;;;;;;;;8.70;74.60;;;;;;4999846;28;19920;-81
2023/02/06 12:53:19;;;;;;;;;;;8.80;76.70;;;;;;5001757;28;20237;-81
2023/02/06 12:55:53;;;;;;;;;;;8.70;73.70;;;;;;5002641;28;20034;-81
2023/02/06 12:58:22;;;;;;;;;;;8.80;74.00;;;;;;5001766;28;19921;-81
2023/02/06 13:00:51;;;;;;;;;;;8.80;74.60;;;;;;4993332;28;19921;-81
2023/02/06 13:03:21;;;;;;;;;;;8.90;74.20;;;;;;5000137;28;19914;-81
2023/02/06 13:05:48;;;;;;;;;;;9.00;73.20;;;;;;4999476;28;20420;-81
2023/02/06 13:08:19;;;;;;;;;;;8.90;75.60;;;;;;4997552;28;19928;-81
2023/02/06 13:10:46;;;;;;;;;;;8.80;72.60;;;;;;4998868;28;19948;-81
2023/02/06 13:13:26;;;;;;;;;;;8.80;74.50;;;;;;4989511;28;19956;-81
2023/02/06 13:15:53;;;;;;;;;;;8.70;72.50;;;;;;4992094;28;19919;-81
2023/02/06 13:18:37;;;;;;;;;;;8.70;73.10;;;;;;4989265;28;19914;-81
2023/02/06 13:21:18;;;;;;;;;;;8.70;73.90;;;;;;4991027;28;20350;-80
2023/02/06 13:24:02;;;;;;;;;;;8.80;71.80;;;;;;4994283;28;19930;-81
2023/02/06 13:26:42;;;;;;;;;;;8.70;71.80;;;;;;4995039;28;19913;-80
2023/02/06 13:29:26;;;;;;;;;;;8.70;73.30;;;;;;4987835;28;19910;-81
2023/02/06 13:32:24;;;;;;;;;;;8.80;72.90;;;;;;4984783;28;20392;-81
2023/02/06 13:34:53;;;;;;;;;;;8.80;72.90;;;;;;4976307;28;20345;-81
2023/02/06 13:37:28;;;;;;;;;;;8.70;71.50;;;;;;4981675;28;19913;-81
2023/02/06 13:40:12;;;;;;;;;;;8.60;71.40;;;;;;4989506;28;19913;-81
2023/02/06 13:42:38;;;;;;;;;;;8.70;73.30;;;;;;4995394;28;19909;-81
2023/02/06 13:45:05;;;;;;;;;;;8.80;74.90;;;;;;4986830;28;20265;-81
2023/02/06 13:47:33;;;;;;;;;;;8.70;73.80;;;;;;4984803;28;19918;-81
2023/02/06 13:50:18;;;;;;;;;;;8.70;74.10;;;;;;4990584;28;19910;-81
2023/02/06 13:53:02;;;;;;;;;;;8.70;74.90;;;;;;4997740;28;19936;-81
2023/02/06 13:55:34;;;;;;;;;;;8.70;75.80;;;;;;4986477;28;20449;-80
2023/02/06 13:58:06;;;;;;;;;;;8.70;75.00;;;;;;4987100;28;19956;-81
2023/02/06 14:00:37;;;;;;;;;;;8.70;74.50;;;;;;4991242;28;19927;-81
2023/02/06 14:03:05;;;;;;;;;;;8.70;73.50;;;;;;4987788;28;19916;-80
2023/02/06 14:05:40;;;;;;;;;;;8.90;73.80;;;;;;4993515;28;20004;-80
2023/02/06 14:08:16;;;;;;;;;;;8.80;71.20;;;;;;4990230;28;19917;-81
2023/02/06 14:13:38;;;;;;;;;;;8.60;71.10;;;;;;4994448;28;20388;-81
2023/02/06 14:16:22;;;;;;;;;;;8.60;71.20;;;;;;5000050;28;20096;-80
2023/02/06 14:18:57;;;;;;;;;;;8.80;70.00;;;;;;5001055;28;20384;-80
2023/02/06 14:21:34;;;;;;;;;;;8.70;70.60;;;;;;5000374;28;19913;-81
2023/02/06 14:24:02;;;;;;;;;;;8.90;71.40;;;;;;5000787;28;19960;-81
2023/02/06 14:26:37;;;;;;;;;;;8.80;70.70;;;;;;4999465;28;19925;-81
2023/02/06 14:29:06;;;;;;;;;;;8.70;70.70;;;;;;4999546;28;20393;-82
2023/02/06 14:31:32;;;;;;;;;;;8.70;70.60;;;;;;4998575;28;20662;-81
2023/02/06 14:34:16;;;;;;;;;;;8.70;71.90;;;;;;4999101;28;19917;-81
2023/02/06 14:36:42;;;;;;;;;;;8.80;70.80;;;;;;4999949;28;19913;-81
2023/02/06 14:39:26;;;;;;;;;;;8.90;69.80;;;;;;4999093;28;19980;-81
2023/02/06 14:41:52;;;;;;;;;;;8.70;69.80;;;;;;4999311;28;19917;-81